Погода Фредерику-Вестфаленна 2 недели

Риу-Гранди-ду-Сул, Бразилия

18 - 31 июля
  • 18июля
    Сегодня
    +12°
    +24°
    Ясно и безоблачно
    ВремяПогодаТемператураВлажностьДавлениеВетер, м/сВероятность осадков
    00:00Ясно и безоблачно+11°C93 %737 мм1.9 м/с5 %
    03:00Ясно и безоблачно+10°C94 %736 мм1.9 м/с5 %
    06:00Облачно с прояснениями+12°C100 %736 мм1.6 м/с5 %
    09:00Пасмурно, сплошная облачность+15°C99 %738 мм1.8 м/с5 %
    12:00Ясно и безоблачно+19°C82 %738 мм1.8 м/с5 %
    15:00Ясно и безоблачно+23°C66 %736 мм1.6 м/с5 %
    18:00Ясно и безоблачно+21°C80 %736 мм2.3 м/с5 %
    21:00Ясно и безоблачно+17°C89 %736 мм1.9 м/с5 %
  • 19июля
    Пятница
    +12°
    +25°
    Ясно и безоблачно
    ВремяПогодаТемператураВлажностьДавлениеВетер, м/сВероятность осадков
    00:00Ясно и безоблачно+14°C92 %736 мм2.1 м/с5 %
    03:00Ясно и безоблачно+13°C94 %736 мм2.0 м/с5 %
    06:00Ясно и безоблачно+14°C95 %737 мм1.9 м/с5 %
    09:00Ясно и безоблачно+16°C88 %739 мм2.0 м/с5 %
    12:00Ясно и безоблачно+21°C71 %740 мм2.3 м/с5 %
    15:00Ясно и безоблачно+24°C59 %738 мм1.2 м/с5 %
    18:00Ясно и безоблачно+21°C77 %738 мм1.9 м/с5 %
    21:00Ясно и безоблачно+18°C86 %738 мм2.1 м/с5 %
  • 20июля
    Суббота
    +11°
    +24°
    Ясно и безоблачно
    ВремяПогодаТемператураВлажностьДавлениеВетер, м/сВероятность осадков
    00:00Ясно и безоблачно+15°C90 %738 мм1.6 м/с5 %
    03:00Небольшая облачность+13°C94 %737 мм1.6 м/с5 %
    06:00Ясно и безоблачно+13°C98 %737 мм1.6 м/с5 %
    09:00Практически безоблачно+16°C92 %738 мм1.4 м/с5 %
    12:00Облачно с прояснениями+20°C74 %738 мм1.8 м/с5 %
    15:00Ясно и безоблачно+23°C60 %736 мм1.5 м/с5 %
    18:00Практически безоблачно+21°C72 %736 мм1.9 м/с5 %
    21:00Небольшая облачность+18°C87 %736 мм1.7 м/с5 %
  • 21июля
    Воскресенье
    +13°
    +24°
    Ясно и безоблачно
    ВремяПогодаТемператураВлажностьДавлениеВетер, м/сВероятность осадков
    00:00Ясно и безоблачно+13°C94 %736 мм1.9 м/с5 %
    03:00Облачно с прояснениями+12°C97 %735 мм1.9 м/с5 %
    06:00Облачно с прояснениями+13°C99 %736 мм1.5 м/с5 %
    09:00Облачно с прояснениями+16°C90 %737 мм1.7 м/с5 %
    12:00Небольшая облачность+20°C71 %737 мм2.4 м/с5 %
    15:00Ясно и безоблачно+23°C58 %735 мм1.7 м/с5 %
    18:00Ясно и безоблачно+19°C80 %735 мм2.2 м/с5 %
    21:00Ясно и безоблачно+18°C84 %736 мм2.2 м/с5 %
  • 22июля
    Понедельник
    +12°
    +25°
    Ясно и безоблачно
    ВремяПогодаТемператураВлажностьДавлениеВетер, м/сВероятность осадков
    00:00Ясно и безоблачно+15°C90 %736 мм1.8 м/с5 %
    03:00Ясно и безоблачно+14°C93 %736 мм2.1 м/с5 %
    06:00Ясно и безоблачно+14°C95 %737 мм1.7 м/с5 %
    09:00Ясно и безоблачно+17°C89 %738 мм1.8 м/с5 %
    12:00Ясно и безоблачно+21°C71 %738 мм1.8 м/с5 %
    15:00Ясно и безоблачно+24°C58 %737 мм1.2 м/с5 %
    18:00Ясно и безоблачно+21°C80 %737 мм2.6 м/с5 %
    21:00Ясно и безоблачно+18°C82 %737 мм1.9 м/с5 %
Мы используем cookies
Соглашаюсь